Poa, Brazil
Current Conditions -  °F | °C
As of 10:00 AM on Friday 28 Nov 2014 (Local Time) from SBGR Reporting Station
Broken Clouds Broken Clouds  
Wind Chill: 72°   Ceiling: 2300
Heat Index: 72°   Visibility: 6mi
Dew Point: 63°   Wind: 7mph
Humidity: 73%   Direction: 150°SSE
Pressure: 30.09"   Gusts: NA
Location:  23.52°S, 46.35°W
Report Text: SBGR 281200Z 15006KT 9999 BKN023 22/17 Q1019
Loading
Personal Weather Stations






























Interactive Weather Map New forecast layout! Learn more

10-Day Weather Forecast

Advertisements
Track Severe Weather on mobile